Time;durP1;ratioP1;P1;durP2;ratioP2;P2;SDS_P1;SDS_P2;PMS_P1;PMS_P2;Temp;Humidity;BMP_temperature;BMP_pressure;BME280_temperature;BME280_humidity;BME280_pressure;Samples;Min_cycle;Max_cycle;Signal;HPM_P1;HPM_P2
2022/07/10 00:00:26;;;;;;;1.73;1.00;;;;;;;15.69;100.00;99071.66;5022422;28;20053;-64
2022/07/10 00:03:10;;;;;;;1.55;0.88;;;;;;;15.71;100.00;99072.38;5024540;28;20062;-65
2022/07/10 00:05:55;;;;;;;1.40;0.93;;;;;;;15.69;100.00;99069.88;5024477;28;20048;-65
2022/07/10 00:08:42;;;;;;;1.45;0.90;;;;;;;15.85;100.00;99066.75;5018800;28;20048;-65
2022/07/10 00:11:27;;;;;;;2.33;1.00;;;;;;;15.96;100.00;99052.59;5015139;28;20038;-64
2022/07/10 00:14:11;;;;;;;0.90;0.82;;;;;;;15.71;100.00;99062.66;5021178;28;20041;-64
2022/07/10 00:16:56;;;;;;;3.35;1.00;;;;;;;15.61;100.00;99059.97;5029908;28;20041;-64
2022/07/10 00:19:40;;;;;;;1.10;0.80;;;;;;;15.67;100.00;99060.41;5005466;28;20508;-65
2022/07/10 00:22:26;;;;;;;2.55;1.20;;;;;;;15.46;100.00;99055.97;5013132;28;20034;-65
2022/07/10 00:25:12;;;;;;;1.42;0.93;;;;;;;15.70;100.00;99052.25;5024159;28;20485;-64
2022/07/10 00:27:57;;;;;;;1.05;0.80;;;;;;;15.84;100.00;99046.59;5018585;28;20057;-65
2022/07/10 00:30:41;;;;;;;2.50;1.00;;;;;;;15.70;100.00;99047.78;5027490;28;20421;-66
2022/07/10 00:33:27;;;;;;;1.17;0.90;;;;;;;15.71;100.00;99038.91;5011481;28;20070;-65
2022/07/10 00:36:12;;;;;;;1.20;0.77;;;;;;;15.86;100.00;99041.19;5028270;28;20034;-65
2022/07/10 00:38:56;;;;;;;1.95;0.88;;;;;;;15.85;100.00;99040.34;5029968;28;20046;-65
2022/07/10 00:41:41;;;;;;;1.10;0.90;;;;;;;15.98;99.39;99034.00;5018677;28;20065;-65
2022/07/10 00:44:26;;;;;;;1.83;1.00;;;;;;;15.83;99.01;99039.63;5017221;28;20046;-64
2022/07/10 00:47:11;;;;;;;1.55;0.80;;;;;;;15.68;99.06;99039.16;5022261;28;20148;-65
2022/07/10 00:49:56;;;;;;;1.05;0.90;;;;;;;15.63;100.00;99039.53;5020368;28;20053;-64
2022/07/10 00:52:40;;;;;;;0.93;0.70;;;;;;;15.56;100.00;99029.63;5033759;28;20084;-64
2022/07/10 00:55:25;;;;;;;1.58;0.88;;;;;;;15.57;99.79;99029.50;5030631;28;20042;-64
2022/07/10 00:58:11;;;;;;;1.95;0.80;;;;;;;15.61;99.22;99027.44;5034684;28;20071;-64
2022/07/10 01:00:56;;;;;;;1.33;0.95;;;;;;;15.54;100.00;99032.41;5033880;28;20436;-63
2022/07/10 01:03:41;;;;;;;1.65;0.70;;;;;;;15.50;99.97;99023.09;5019057;28;20122;-65
2022/07/10 01:06:26;;;;;;;2.33;0.90;;;;;;;15.51;100.00;99017.69;5023283;28;20045;-64
2022/07/10 01:09:11;;;;;;;1.08;0.65;;;;;;;15.31;100.00;99019.34;5034201;28;20034;-63
2022/07/10 01:11:56;;;;;;;0.80;0.65;;;;;;;15.40;100.00;99017.75;5032145;28;20072;-64
2022/07/10 01:14:41;;;;;;;2.38;0.70;;;;;;;15.35;100.00;99012.88;5034532;28;20052;-64
2022/07/10 01:17:28;;;;;;;0.88;0.70;;;;;;;15.34;99.54;99018.28;5028996;28;20112;-63
2022/07/10 01:20:14;;;;;;;1.33;0.90;;;;;;;15.48;100.00;99015.31;5020455;28;20155;-64
2022/07/10 01:22:59;;;;;;;1.08;0.68;;;;;;;15.46;100.00;99013.75;5019101;28;20069;-64
2022/07/10 01:25:45;;;;;;;2.10;1.00;;;;;;;15.43;99.23;99012.22;5017226;28;20482;-64
2022/07/10 01:28:31;;;;;;;0.93;0.55;;;;;;;15.42;99.46;99001.78;5025006;28;20091;-64
2022/07/10 01:31:18;;;;;;;1.45;0.90;;;;;;;15.30;99.94;98993.94;5029405;28;20071;-65
2022/07/10 01:34:08;;;;;;;1.25;0.80;;;;;;;15.14;100.00;98991.78;5027551;28;20446;-64
2022/07/10 01:36:52;;;;;;;1.38;0.70;;;;;;;15.24;100.00;98989.19;5023394;28;20038;-64
2022/07/10 01:39:38;;;;;;;2.60;0.65;;;;;;;15.18;100.00;98982.63;5024933;28;20091;-64
2022/07/10 01:42:22;;;;;;;2.15;0.60;;;;;;;14.92;100.00;98985.63;5014536;28;20048;-65
2022/07/10 01:45:09;;;;;;;1.52;0.80;;;;;;;14.94;100.00;98980.25;5053743;28;20044;-64
2022/07/10 01:47:54;;;;;;;2.20;0.80;;;;;;;14.80;100.00;98973.50;5036318;28;20409;-64
2022/07/10 01:50:39;;;;;;;2.30;0.80;;;;;;;14.71;100.00;98967.13;5021216;28;20052;-64
2022/07/10 01:53:24;;;;;;;1.13;0.90;;;;;;;14.69;100.00;98969.91;5020224;28;20057;-64
2022/07/10 01:56:11;;;;;;;1.38;0.80;;;;;;;14.78;100.00;98963.03;5047506;28;20500;-64
2022/07/10 01:58:55;;;;;;;1.30;0.80;;;;;;;14.76;100.00;98951.78;5033781;28;20060;-64
2022/07/10 02:01:39;;;;;;;2.10;1.00;;;;;;;14.71;100.00;98954.78;5019100;28;20115;-65
2022/07/10 02:07:39;;;;;;;1.45;0.90;;;;;;;14.47;100.00;98942.69;5040132;28;20517;-65
2022/07/10 02:10:23;;;;;;;0.73;0.60;;;;;;;14.39;100.00;98945.13;5033631;28;20049;-65
2022/07/10 02:13:09;;;;;;;1.05;0.80;;;;;;;14.45;100.00;98941.97;5033010;28;20041;-65
2022/07/10 02:15:54;;;;;;;2.17;0.70;;;;;;;14.45;100.00;98946.41;5020726;28;20095;-64
2022/07/10 02:18:40;;;;;;;1.23;0.70;;;;;;;14.39;100.00;98945.94;5028088;28;20042;-64
2022/07/10 02:21:24;;;;;;;1.27;0.82;;;;;;;14.40;100.00;98939.72;5024211;28;20485;-65
2022/07/10 02:24:09;;;;;;;2.72;0.77;;;;;;;14.44;100.00;98944.72;5027433;28;20061;-64
2022/07/10 02:26:55;;;;;;;1.55;0.90;;;;;;;14.34;100.00;98936.75;5025593;28;20103;-65
2022/07/10 02:29:40;;;;;;;0.98;0.80;;;;;;;14.34;100.00;98947.28;5033261;28;20077;-64
2022/07/10 02:32:24;;;;;;;1.08;0.80;;;;;;;14.32;100.00;98939.50;5044934;28;20038;-64
2022/07/10 02:35:09;;;;;;;2.08;0.95;;;;;;;14.27;100.00;98936.41;5038837;28;20052;-64
2022/07/10 02:37:54;;;;;;;1.90;0.77;;;;;;;14.29;100.00;98937.97;5013651;28;20053;-64
2022/07/10 02:40:38;;;;;;;5.47;1.10;;;;;;;14.21;100.00;98934.28;5029783;28;20096;-64
2022/07/10 02:43:23;;;;;;;1.58;0.80;;;;;;;14.23;100.00;98930.53;5023251;28;20498;-64
2022/07/10 02:46:08;;;;;;;1.25;0.80;;;;;;;14.23;100.00;98927.09;5032792;28;20068;-64
2022/07/10 02:48:53;;;;;;;3.83;1.13;;;;;;;14.22;100.00;98925.38;5032512;28;20038;-66
2022/07/10 02:51:37;;;;;;;1.23;0.80;;;;;;;14.31;100.00;98929.94;5021741;28;20072;-65
2022/07/10 02:54:22;;;;;;;2.20;0.90;;;;;;;14.32;100.00;98934.22;5035044;28;20107;-64
2022/07/10 02:57:07;;;;;;;1.63;0.90;;;;;;;14.24;100.00;98932.22;5029133;28;20502;-64
2022/07/10 02:59:52;;;;;;;2.35;0.98;;;;;;;14.31;100.00;98929.09;5012942;28;20068;-63
2022/07/10 03:02:37;;;;;;;2.65;1.00;;;;;;;14.25;100.00;98920.72;5039928;28;20041;-63
2022/07/10 03:05:22;;;;;;;1.90;0.95;;;;;;;14.22;100.00;98928.88;5012393;28;20040;-63
2022/07/10 03:08:07;;;;;;;3.42;0.90;;;;;;;14.26;100.00;98927.66;5038660;28;20045;-64
2022/07/10 03:10:52;;;;;;;0.98;0.77;;;;;;;14.39;100.00;98927.47;5026139;28;20046;-64
2022/07/10 03:13:36;;;;;;;0.93;0.73;;;;;;;14.37;100.00;98918.88;5027357;28;20091;-64
2022/07/10 03:16:21;;;;;;;1.02;0.80;;;;;;;14.35;100.00;98930.50;5023833;28;20513;-64
2022/07/10 03:19:06;;;;;;;1.52;1.00;;;;;;;14.40;100.00;98926.53;5040621;28;20094;-64
2022/07/10 03:21:51;;;;;;;2.80;1.00;;;;;;;14.42;100.00;98936.94;5039548;28;20446;-63
2022/07/10 03:24:35;;;;;;;1.45;0.73;;;;;;;14.41;100.00;98933.47;5026142;28;20050;-64
2022/07/10 03:27:20;;;;;;;1.27;1.00;;;;;;;14.35;100.00;98920.81;5028240;28;20068;-64
2022/07/10 03:30:05;;;;;;;2.95;1.10;;;;;;;14.47;100.00;98932.16;5047467;28;20068;-63
2022/07/10 03:32:49;;;;;;;2.25;0.88;;;;;;;14.50;100.00;98909.97;5042016;28;20063;-63
2022/07/10 03:35:34;;;;;;;0.93;0.80;;;;;;;14.61;100.00;98916.97;5017047;28;20049;-64
2022/07/10 03:38:19;;;;;;;2.92;1.40;;;;;;;14.64;99.64;98914.06;5030073;28;20171;-64
2022/07/10 03:41:04;;;;;;;1.55;0.90;;;;;;;14.68;100.00;98919.94;5025195;28;20108;-64
2022/07/10 03:43:49;;;;;;;2.92;1.50;;;;;;;14.68;98.80;98920.78;5039583;28;20119;-64
2022/07/10 03:46:35;;;;;;;2.42;0.82;;;;;;;14.82;98.09;98918.81;5042565;28;20409;-64
2022/07/10 03:49:20;;;;;;;1.77;1.00;;;;;;;14.71;97.50;98924.94;5033259;28;20555;-64
2022/07/10 03:52:05;;;;;;;1.67;0.93;;;;;;;14.68;98.98;98918.13;5019485;28;20042;-63
2022/07/10 03:54:49;;;;;;;1.35;0.85;;;;;;;14.76;98.01;98917.50;5018790;28;20091;-64
2022/07/10 04:00:38;;;;;;;2.75;1.20;;;;;;;14.69;97.78;98908.44;5031621;28;20444;-64
2022/07/10 04:03:23;;;;;;;2.55;1.00;;;;;;;14.68;97.88;98914.66;5024954;28;20038;-64
2022/07/10 04:06:07;;;;;;;2.85;1.10;;;;;;;14.76;96.78;98914.84;5013958;28;20065;-64
2022/07/10 04:08:52;;;;;;;1.70;1.10;;;;;;;14.61;97.17;98915.19;5042036;28;20052;-64
2022/07/10 04:11:37;;;;;;;1.48;1.00;;;;;;;14.59;97.79;98918.91;5018134;28;20087;-64
2022/07/10 04:14:22;;;;;;;4.05;1.27;;;;;;;14.58;97.63;98919.84;5031816;28;20076;-63
2022/07/10 04:17:06;;;;;;;1.45;0.93;;;;;;;14.59;96.93;98917.09;5012075;28;20508;-64
2022/07/10 04:19:51;;;;;;;3.47;1.10;;;;;;;14.60;97.03;98916.16;5036771;28;20056;-65
2022/07/10 04:22:36;;;;;;;2.35;0.93;;;;;;;14.54;97.71;98919.31;5043297;28;20449;-64
2022/07/10 04:25:20;;;;;;;2.03;0.95;;;;;;;14.50;98.92;98923.97;5016387;28;20096;-64
2022/07/10 04:28:05;;;;;;;2.92;1.00;;;;;;;14.61;98.45;98922.25;5029224;28;20053;-64
2022/07/10 04:30:50;;;;;;;1.65;1.08;;;;;;;14.82;97.57;98924.91;5023449;28;20619;-64
2022/07/10 04:33:35;;;;;;;3.05;1.10;;;;;;;14.78;98.24;98923.47;5015799;28;20413;-64
2022/07/10 04:36:19;;;;;;;6.28;1.40;;;;;;;14.65;98.01;98923.66;5027351;28;20045;-64
2022/07/10 04:39:04;;;;;;;2.28;1.17;;;;;;;14.68;98.97;98928.69;5038631;28;20041;-65
2022/07/10 04:41:49;;;;;;;4.40;1.10;;;;;;;14.54;99.20;98916.66;5014756;28;20053;-64
2022/07/10 04:44:36;;;;;;;3.95;1.33;;;;;;;14.51;100.00;98927.44;5021627;28;20132;-66
2022/07/10 04:47:20;;;;;;;2.67;1.17;;;;;;;14.53;99.15;98929.00;5033188;28;20048;-65
2022/07/10 04:50:05;;;;;;;2.67;1.20;;;;;;;14.53;99.82;98922.88;5034592;28;20045;-64
2022/07/10 04:52:50;;;;;;;3.40;1.42;;;;;;;14.55;99.91;98934.13;5039955;28;20064;-64
2022/07/10 04:55:35;;;;;;;2.92;1.05;;;;;;;14.52;99.93;98919.44;5041717;28;20065;-64
2022/07/10 04:58:20;;;;;;;7.63;1.58;;;;;;;14.49;99.94;98917.03;5034823;28;20049;-65
2022/07/10 05:01:05;;;;;;;1.75;1.35;;;;;;;14.58;99.79;98922.50;5034924;28;20128;-65
2022/07/10 05:03:49;;;;;;;1.92;1.23;;;;;;;14.72;98.53;98922.19;5026892;28;20049;-64
2022/07/10 05:06:34;;;;;;;4.43;1.20;;;;;;;14.89;97.71;98933.16;5033369;28;20057;-65
2022/07/10 05:09:19;;;;;;;3.10;1.10;;;;;;;15.05;97.59;98923.97;5034599;28;20033;-65
2022/07/10 05:12:04;;;;;;;2.38;1.20;;;;;;;15.06;96.32;98920.34;5035303;28;20045;-64
2022/07/10 05:14:49;;;;;;;1.95;1.15;;;;;;;14.98;96.82;98919.19;5035052;28;20449;-64
2022/07/10 05:17:33;;;;;;;1.30;0.85;;;;;;;14.98;97.74;98923.63;5029495;28;20692;-64
2022/07/10 05:20:18;;;;;;;3.35;1.25;;;;;;;14.76;97.35;98920.97;5034561;28;20418;-65
2022/07/10 05:23:03;;;;;;;5.30;1.30;;;;;;;14.86;98.15;98920.22;5031511;28;20037;-65
2022/07/10 05:25:49;;;;;;;4.53;1.25;;;;;;;15.27;95.65;98920.31;5032223;28;20042;-64
2022/07/10 05:28:33;;;;;;;2.67;1.20;;;;;;;15.23;95.49;98935.56;5042476;28;20090;-64
2022/07/10 05:31:18;;;;;;;3.35;1.20;;;;;;;15.07;96.26;98933.41;5038861;28;20077;-64
2022/07/10 05:34:03;;;;;;;1.50;0.98;;;;;;;15.13;96.55;98935.50;5031977;28;20047;-64
2022/07/10 05:36:48;;;;;;;2.80;1.30;;;;;;;15.17;95.97;98927.34;5004313;28;20038;-65
2022/07/10 05:39:33;;;;;;;3.35;1.30;;;;;;;15.11;96.05;98937.44;5040730;28;20042;-64
2022/07/10 05:42:18;;;;;;;2.60;0.80;;;;;;;15.19;96.46;98928.06;5018442;28;20081;-64
2022/07/10 05:45:05;;;;;;;1.20;1.00;;;;;;;15.46;94.18;98926.63;5047060;28;20069;-64
2022/07/10 05:47:52;;;;;;;3.97;0.98;;;;;;;15.55;91.81;98920.56;5032434;28;20049;-65
2022/07/10 05:50:36;;;;;;;2.05;1.20;;;;;;;15.63;90.70;98931.28;5033231;28;20394;-64
2022/07/10 05:53:21;;;;;;;2.45;1.02;;;;;;;15.66;90.00;98927.53;5036572;28;20495;-64
2022/07/10 05:56:06;;;;;;;4.75;1.05;;;;;;;15.70;89.80;98918.38;5030168;28;20111;-64
2022/07/10 05:58:51;;;;;;;2.00;1.20;;;;;;;15.69;89.83;98921.16;5027103;28;20042;-64
2022/07/10 06:01:35;;;;;;;2.28;1.20;;;;;;;15.79;89.97;98923.81;5013720;28;20034;-65
2022/07/10 06:04:20;;;;;;;3.05;1.27;;;;;;;15.75;89.63;98925.88;5031434;28;20045;-64
2022/07/10 06:07:05;;;;;;;2.08;1.17;;;;;;;15.81;91.02;98933.28;5023575;28;20403;-64
2022/07/10 06:09:49;;;;;;;1.80;1.05;;;;;;;15.84;90.19;98933.03;5024718;28;20073;-64
2022/07/10 06:12:34;;;;;;;2.92;1.23;;;;;;;16.05;89.62;98932.13;5026465;28;20050;-64
2022/07/10 06:15:19;;;;;;;1.73;1.10;;;;;;;15.94;89.09;98922.47;5013397;28;20038;-63
2022/07/10 06:18:04;;;;;;;4.15;1.20;;;;;;;16.46;86.17;98925.88;5029291;28;20052;-63
2022/07/10 06:20:51;;;;;;;3.10;1.10;;;;;;;16.71;83.61;98924.47;5044271;28;20041;-64
2022/07/10 06:23:36;;;;;;;1.70;1.00;;;;;;;17.14;84.05;98932.06;5047518;28;20045;-64
2022/07/10 06:26:23;;;;;;;3.35;1.02;;;;;;;17.75;81.47;98937.00;5031386;28;20128;-63
2022/07/10 06:29:08;;;;;;;2.40;0.90;;;;;;;18.28;79.54;98945.19;5033594;28;20404;-64
2022/07/10 06:31:53;;;;;;;2.10;1.20;;;;;;;18.11;79.66;98946.81;5014199;28;20065;-63
2022/07/10 06:34:38;;;;;;;2.15;1.20;;;;;;;17.76;79.87;98935.19;5013232;28;20461;-64
2022/07/10 06:37:23;;;;;;;1.80;1.00;;;;;;;17.55;81.49;98945.03;5013350;28;20046;-63
2022/07/10 06:40:14;;;;;;;1.92;1.27;;;;;;;17.49;82.39;98943.78;5031431;28;20117;-63
2022/07/10 06:43:02;;;;;;;1.85;1.02;;;;;;;17.60;82.28;98945.44;5021759;28;20138;-63
2022/07/10 06:45:47;;;;;;;2.55;1.10;;;;;;;17.63;82.87;98944.28;5016542;28;20490;-63
2022/07/10 06:48:32;;;;;;;1.95;1.20;;;;;;;17.89;80.67;98942.78;5024498;28;20467;-63
2022/07/10 06:51:20;;;;;;;1.80;1.17;;;;;;;17.82;78.70;98943.34;5026181;28;20474;-63
2022/07/10 06:54:04;;;;;;;5.35;1.20;;;;;;;19.09;73.54;98941.69;5032808;28;20061;-64
2022/07/10 06:56:49;;;;;;;3.28;0.98;;;;;;;19.39;71.88;98952.00;5027189;28;20132;-64
2022/07/10 06:59:34;;;;;;;2.88;1.10;;;;;;;18.63;74.08;98955.09;5026861;28;20046;-64
2022/07/10 07:02:20;;;;;;;1.67;1.20;;;;;;;18.19;76.72;98957.53;5045205;28;20040;-64
2022/07/10 07:05:05;;;;;;;3.80;1.10;;;;;;;18.17;76.69;98954.19;5031109;28;20054;-64
2022/07/10 07:07:50;;;;;;;7.28;1.40;;;;;;;17.77;77.32;98963.31;5019665;28;20069;-64
2022/07/10 07:10:35;;;;;;;2.05;1.27;;;;;;;17.56;79.39;98969.69;5015190;28;20072;-64
2022/07/10 07:13:20;;;;;;;1.60;1.17;;;;;;;17.19;79.63;98971.34;5028624;28;20120;-64
2022/07/10 07:16:09;;;;;;;2.50;1.30;;;;;;;17.69;78.53;98969.38;5028538;28;20147;-63
2022/07/10 07:18:56;;;;;;;1.73;1.10;;;;;;;17.92;77.58;98964.50;5042879;28;20124;-64
2022/07/10 07:24:45;;;;;;;1.45;0.95;;;;;;;17.70;76.04;98955.97;5022493;28;20160;-65
2022/07/10 07:27:38;;;;;;;1.60;1.20;;;;;;;17.81;76.60;98959.38;5030357;28;20045;-64
2022/07/10 07:30:32;;;;;;;1.65;1.33;;;;;;;17.73;76.66;98962.78;5014208;28;20081;-64
2022/07/10 07:33:17;;;;;;;3.95;1.33;;;;;;;17.83;76.49;98958.28;5031256;28;20041;-64
2022/07/10 07:36:01;;;;;;;5.50;1.27;;;;;;;18.08;76.33;98969.13;5017110;28;20049;-64
2022/07/10 07:38:53;;;;;;;3.53;1.33;;;;;;;17.94;75.45;98967.00;5031064;28;20199;-64
2022/07/10 07:41:52;;;;;;;1.80;1.52;;;;;;;17.63;76.41;98964.66;5018720;28;20041;-63
2022/07/10 07:44:44;;;;;;;3.35;1.30;;;;;;;17.75;76.25;98963.47;5023549;28;20049;-63
2022/07/10 07:47:50;;;;;;;4.20;1.38;;;;;;;17.74;77.53;98961.78;5015772;28;20061;-64
2022/07/10 07:50:36;;;;;;;7.00;1.40;;;;;;;17.71;75.97;98960.28;5016387;28;20054;-63
2022/07/10 07:53:21;;;;;;;2.20;1.35;;;;;;;17.82;75.46;98961.06;5032655;28;20071;-64
2022/07/10 07:56:06;;;;;;;2.03;1.40;;;;;;;18.26;75.21;98964.88;5017921;28;20061;-64
2022/07/10 07:58:51;;;;;;;2.08;1.02;;;;;;;18.69;73.45;98962.44;5039226;28;20128;-64
2022/07/10 08:01:36;;;;;;;1.33;0.88;;;;;;;19.06;71.07;98963.22;5006932;28;20055;-64
2022/07/10 08:04:21;;;;;;;2.72;1.20;;;;;;;18.77;73.17;98956.38;5023895;28;20112;-64
2022/07/10 08:07:09;;;;;;;1.70;1.20;;;;;;;19.22;70.60;98961.69;4997664;28;20056;-64
2022/07/10 08:09:53;;;;;;;1.60;1.23;;;;;;;19.53;67.85;98953.22;5025148;28;20045;-64
2022/07/10 08:12:39;;;;;;;1.77;1.30;;;;;;;19.37;67.68;98943.34;5023601;28;20048;-64
2022/07/10 08:15:23;;;;;;;2.45;1.30;;;;;;;18.86;66.03;98962.56;5011435;28;20128;-64
2022/07/10 08:18:08;;;;;;;4.95;1.20;;;;;;;18.43;69.53;98953.44;5023608;28;20124;-63
2022/07/10 08:20:55;;;;;;;2.35;1.10;;;;;;;18.56;72.75;98949.56;5040121;28;20061;-63
2022/07/10 08:23:40;;;;;;;2.30;1.33;;;;;;;19.02;69.96;98946.78;5023290;28;20061;-64
2022/07/10 08:26:25;;;;;;;3.80;1.20;;;;;;;18.92;67.71;98956.66;5035262;28;20060;-63
2022/07/10 08:29:10;;;;;;;2.63;1.23;;;;;;;18.65;68.08;98961.09;5022458;28;20052;-65
2022/07/10 08:31:54;;;;;;;2.00;1.08;;;;;;;18.40;69.60;98960.88;5056637;28;20065;-66
2022/07/10 08:34:42;;;;;;;2.63;1.13;;;;;;;18.50;72.46;98968.75;5037902;28;20073;-63
2022/07/10 08:37:27;;;;;;;2.60;1.33;;;;;;;18.01;69.19;98970.72;5018110;28;20034;-64
2022/07/10 08:40:15;;;;;;;3.80;1.20;;;;;;;17.99;72.58;98964.72;4994569;28;20049;-64
2022/07/10 08:43:00;;;;;;;1.63;1.20;;;;;;;17.88;70.75;98965.78;5025135;28;20064;-64
2022/07/10 08:45:47;;;;;;;2.92;1.17;;;;;;;18.10;71.16;98968.97;5027185;28;20061;-64
2022/07/10 08:48:36;;;;;;;2.40;0.90;;;;;;;17.77;71.83;98976.56;5027190;28;20112;-63
2022/07/10 08:51:45;;;;;;;2.25;0.98;;;;;;;17.53;70.30;98970.81;5026696;28;20064;-64
2022/07/10 08:54:32;;;;;;;2.10;1.30;;;;;;;17.14;72.49;98979.72;5031785;28;20520;-64
2022/07/10 08:57:18;;;;;;;1.48;0.95;;;;;;;17.54;72.99;98990.19;5031166;28;20549;-63
2022/07/10 09:00:03;;;;;;;3.78;1.15;;;;;;;17.60;74.28;98987.81;5026228;28;20453;-63
2022/07/10 09:02:53;;;;;;;1.80;0.90;;;;;;;17.49;78.08;98987.97;5022755;28;20046;-64
2022/07/10 09:05:40;;;;;;;3.00;0.80;;;;;;;17.10;78.31;98988.91;5023562;28;20116;-64
2022/07/10 09:08:28;;;;;;;3.63;0.88;;;;;;;17.08;79.94;98986.41;5033285;28;20062;-65
2022/07/10 09:11:17;;;;;;;3.47;1.35;;;;;;;16.79;82.54;98997.00;5023256;28;20133;-64
2022/07/10 09:14:07;;;;;;;1.10;0.77;;;;;;;17.24;83.44;99007.00;5021113;28;20044;-65
2022/07/10 09:16:52;;;;;;;1.10;0.68;;;;;;;17.07;83.35;98997.94;5019082;28;20168;-63
2022/07/10 09:19:42;;;;;;;3.90;1.08;;;;;;;16.35;83.75;99001.69;5019728;28;20506;-63
2022/07/10 09:22:34;;;;;;;4.15;1.05;;;;;;;16.67;84.85;99002.44;5002499;28;20048;-63
2022/07/10 09:25:34;;;;;;;9.57;1.08;;;;;;;17.31;84.14;99001.97;5030765;28;20041;-63
2022/07/10 09:28:24;;;;;;;3.80;0.90;;;;;;;17.45;86.36;99002.47;5032372;28;20053;-64
2022/07/10 09:31:10;;;;;;;2.40;0.80;;;;;;;17.28;83.91;99006.72;5023663;28;20556;-65
2022/07/10 09:33:54;;;;;;;4.15;1.10;;;;;;;17.58;85.46;99003.00;5033369;28;20041;-66
2022/07/10 09:36:39;;;;;;;3.05;1.13;;;;;;;17.87;83.23;98998.53;5023216;28;20042;-64
2022/07/10 09:39:23;;;;;;;1.92;0.88;;;;;;;17.89;83.01;98998.41;5031540;28;20069;-64
2022/07/10 09:42:25;;;;;;;1.85;1.02;;;;;;;18.78;80.43;98992.53;5032236;28;20091;-63
2022/07/10 09:45:16;;;;;;;2.00;0.98;;;;;;;19.11;78.85;98992.00;5033020;28;20053;-63
2022/07/10 09:48:04;;;;;;;2.75;1.20;;;;;;;18.56;79.57;98990.19;5005857;28;20045;-63
2022/07/10 09:50:49;;;;;;;1.42;0.98;;;;;;;18.92;75.68;98992.00;5033825;28;20113;-64
2022/07/10 09:53:40;;;;;;;1.48;0.95;;;;;;;19.08;75.40;98995.75;5042737;28;20102;-63
2022/07/10 09:56:33;;;;;;;1.90;0.80;;;;;;;18.77;75.80;98989.03;5012917;28;20544;-64
2022/07/10 09:59:19;;;;;;;1.88;0.70;;;;;;;18.70;75.97;98985.34;4999577;28;20080;-64
2022/07/10 10:02:11;;;;;;;1.00;0.60;;;;;;;19.35;80.40;98985.16;5019081;28;20046;-65
2022/07/10 10:04:56;;;;;;;2.47;0.93;;;;;;;20.92;68.40;98966.16;5031904;28;20042;-65
2022/07/10 10:07:41;;;;;;;1.90;1.00;;;;;;;21.63;65.93;98959.34;5020301;28;20045;-64
2022/07/10 10:10:26;;;;;;;2.42;0.85;;;;;;;21.75;61.37;98962.47;5028085;28;20497;-64
2022/07/10 10:13:15;;;;;;;1.55;1.05;;;;;;;21.70;64.66;98953.31;5032281;28;20119;-63
2022/07/10 10:16:02;;;;;;;4.03;0.98;;;;;;;22.17;62.72;98954.25;5025435;28;20045;-65
2022/07/10 10:21:51;;;;;;;1.20;0.50;;;;;;;23.66;64.03;98942.41;5025958;28;20486;-65
2022/07/10 10:24:40;;;;;;;2.97;0.85;;;;;;;23.47;54.89;98952.69;5029242;28;20132;-66
2022/07/10 10:27:25;;;;;;;1.13;0.60;;;;;;;22.27;59.02;98935.34;5017713;28;20045;-67
2022/07/10 10:33:35;;;;;;;1.33;0.50;;;;;;;22.44;54.43;98946.72;5028551;28;20482;-64
2022/07/10 10:36:41;;;;;;;1.77;0.45;;;;;;;21.71;56.62;98945.13;5020626;28;20120;-65
2022/07/10 10:39:28;;;;;;;1.33;0.55;;;;;;;21.96;55.00;98937.06;5021155;28;20052;-65
2022/07/10 10:42:32;;;;;;;2.10;0.65;;;;;;;21.10;53.95;98927.88;5002730;28;20049;-67
2022/07/10 10:45:27;;;;;;;2.53;0.80;;;;;;;22.95;53.06;98926.63;5012294;28;20057;-65
2022/07/10 10:48:22;;;;;;;0.98;0.60;;;;;;;22.13;53.34;98927.09;5014345;28;20049;-66
2022/07/10 10:51:07;;;;;;;2.03;0.80;;;;;;;21.19;55.31;98912.69;5017429;28;20116;-65
2022/07/10 10:54:04;;;;;;;2.05;0.70;;;;;;;21.07;51.47;98912.22;5019807;28;20487;-65
2022/07/10 10:57:18;;;;;;;1.80;0.60;;;;;;;21.75;50.70;98917.16;5015110;28;20050;-65
2022/07/10 11:00:07;;;;;;;1.58;0.60;;;;;;;22.62;47.94;98902.94;5021350;28;20060;-65
2022/07/10 11:03:16;;;;;;;1.80;0.50;;;;;;;23.03;45.18;98901.69;5027286;28;20041;-66
2022/07/10 11:06:04;;;;;;;1.85;0.70;;;;;;;22.56;45.14;98899.09;5000390;28;20066;-65
2022/07/10 11:08:48;;;;;;;2.80;0.77;;;;;;;23.06;45.43;98900.50;5025233;28;20045;-65
2022/07/10 11:11:35;;;;;;;1.13;0.43;;;;;;;23.27;47.57;98899.78;5022033;28;20072;-64
2022/07/10 11:14:28;;;;;;;3.05;0.47;;;;;;;23.71;41.21;98890.06;5031315;28;20041;-66
2022/07/10 11:17:30;;;;;;;2.17;0.82;;;;;;;21.88;45.75;98900.59;5026199;28;20110;-69
2022/07/10 11:20:14;;;;;;;2.65;0.68;;;;;;;22.70;45.84;98902.84;5003392;28;20068;-65
2022/07/10 11:23:08;;;;;;;2.13;0.63;;;;;;;21.46;46.21;98899.94;5017930;28;20042;-65
2022/07/10 11:26:12;;;;;;;2.45;0.55;;;;;;;21.74;49.33;98896.00;5030573;28;20116;-65
2022/07/10 11:29:04;;;;;;;2.35;0.70;;;;;;;22.06;47.18;98909.31;5035680;28;20090;-64
2022/07/10 11:31:54;;;;;;;3.65;0.60;;;;;;;22.02;47.26;98903.50;5016290;28;20072;-65
2022/07/10 11:34:39;;;;;;;2.40;0.88;;;;;;;20.80;47.54;98908.91;5030515;28;20038;-65
2022/07/10 11:37:28;;;;;;;1.13;0.32;;;;;;;20.42;51.93;98910.28;5031576;28;20034;-64
2022/07/10 11:40:13;;;;;;;2.45;0.40;;;;;;;20.82;50.43;98906.94;5019937;28;20116;-65
2022/07/10 11:42:59;;;;;;;2.95;0.50;;;;;;;21.65;45.48;98901.38;5018492;28;20474;-64
2022/07/10 11:45:45;;;;;;;4.82;0.50;;;;;;;21.27;45.22;98890.53;5031845;28;20107;-64
2022/07/10 11:48:39;;;;;;;2.97;0.60;;;;;;;21.63;43.85;98879.38;5030158;28;20571;-65
2022/07/10 11:51:28;;;;;;;1.65;0.40;;;;;;;21.41;43.69;98900.44;5018924;28;20375;-65
2022/07/10 11:54:18;;;;;;;0.70;0.38;;;;;;;21.27;43.57;98882.53;5014803;28;20191;-65
2022/07/10 11:57:09;;;;;;;1.38;0.40;;;;;;;21.46;43.07;98888.47;5011981;28;20049;-66
2022/07/10 11:59:55;;;;;;;1.65;0.40;;;;;;;21.57;42.05;98879.25;5017418;28;20484;-64
2022/07/10 12:02:39;;;;;;;2.00;0.32;;;;;;;21.88;42.05;98891.78;5029482;28;20050;-65
2022/07/10 12:05:39;;;;;;;0.82;0.30;;;;;;;23.35;39.29;98896.16;5021446;28;20038;-65
2022/07/10 12:08:24;;;;;;;3.85;0.40;;;;;;;23.79;38.07;98866.88;5023575;28;20462;-65
2022/07/10 12:11:16;;;;;;;1.40;0.50;;;;;;;23.50;38.01;98872.94;5026051;28;20046;-66
2022/07/10 12:14:12;;;;;;;1.95;0.63;;;;;;;21.86;38.64;98861.78;5029998;28;20446;-67
2022/07/10 12:16:58;;;;;;;1.25;0.10;;;;;;;22.72;40.64;98892.81;5030825;28;20053;-66
2022/07/10 12:19:43;;;;;;;3.38;0.50;;;;;;;24.04;35.51;98874.56;5030742;28;20037;-64
2022/07/10 12:22:28;;;;;;;1.63;0.40;;;;;;;24.51;35.62;98868.81;5010063;28;20041;-65
2022/07/10 12:25:16;;;;;;;1.25;0.17;;;;;;;23.45;34.62;98864.66;5035738;28;20069;-67
2022/07/10 12:28:01;;;;;;;1.95;0.30;;;;;;;23.00;35.71;98876.19;5036231;28;20084;-64
2022/07/10 12:30:49;;;;;;;2.30;0.40;;;;;;;23.82;35.65;98869.16;5038418;28;20410;-63
2022/07/10 12:33:35;;;;;;;1.42;0.32;;;;;;;23.58;34.42;98880.03;5031950;28;20464;-65
2022/07/10 12:36:21;;;;;;;4.65;0.47;;;;;;;23.96;35.41;98879.00;5043059;28;20102;-66
2022/07/10 12:39:05;;;;;;;1.00;0.20;;;;;;;24.49;34.13;98874.34;5026660;28;20053;-65
2022/07/10 12:42:08;;;;;;;0.63;0.20;;;;;;;24.36;33.94;98854.50;5022139;28;20042;-65
2022/07/10 12:44:54;;;;;;;1.38;0.20;;;;;;;23.58;33.56;98877.38;5032755;28;20452;-65
2022/07/10 12:47:47;;;;;;;0.35;0.10;;;;;;;22.08;35.96;98868.13;5022191;28;20068;-65
2022/07/10 12:50:32;;;;;;;0.95;0.22;;;;;;;22.30;35.52;98889.66;5042617;28;20049;-65
2022/07/10 12:53:16;;;;;;;2.97;0.20;;;;;;;23.60;33.17;98882.53;5038875;28;20122;-65
2022/07/10 12:56:01;;;;;;;1.40;0.13;;;;;;;22.59;33.85;98895.22;5047125;28;20064;-66
2022/07/10 12:58:46;;;;;;;1.48;0.30;;;;;;;23.34;36.41;98884.63;5030793;28;20073;-67
2022/07/10 13:01:42;;;;;;;0.57;0.20;;;;;;;23.33;33.86;98884.81;5033162;28;20064;-67
2022/07/10 13:04:26;;;;;;;0.82;0.22;;;;;;;21.74;35.60;98882.66;5016442;28;20065;-65
2022/07/10 13:07:14;;;;;;;1.25;0.22;;;;;;;21.55;36.11;98876.75;5033292;28;20046;-67
2022/07/10 13:10:01;;;;;;;0.82;0.10;;;;;;;22.07;35.64;98890.47;5022945;28;20038;-67
2022/07/10 13:12:45;;;;;;;0.50;0.28;;;;;;;22.79;35.55;98903.59;5020695;28;20061;-66
2022/07/10 13:15:31;;;;;;;0.98;0.20;;;;;;;23.26;32.61;98900.75;5018948;28;20045;-67
2022/07/10 13:18:17;;;;;;;1.17;0.30;;;;;;;23.12;34.60;98911.28;5020848;28;20418;-67